Time;durP1;ratioP1;P1;durP2;ratioP2;P2;SDS_P1;SDS_P2;PMS_P1;PMS_P2;Temp;Humidity;BMP_temperature;BMP_pressure;BME280_temperature;BME280_humidity;BME280_pressure;Samples;Min_cycle;Max_cycle;Signal;HPM_P1;HPM_P2
2023/05/08 00:02:13;;;;;;;21.92;14.80;;;;;;;13.49;100.00;99684.66;5061497;28;20040;-62
2023/05/08 00:04:40;;;;;;;21.15;14.05;;;;;;;13.56;100.00;99684.50;5055545;28;20120;-62
2023/05/08 00:07:07;;;;;;;22.38;16.35;;;;;;;13.54;100.00;99681.22;5061160;28;20037;-63
2023/05/08 00:09:35;;;;;;;23.30;16.13;;;;;;;13.56;100.00;99685.31;5060481;28;20491;-62
2023/05/08 00:12:02;;;;;;;21.75;15.90;;;;;;;13.56;100.00;99685.31;5064010;28;20056;-62
2023/05/08 00:14:30;;;;;;;18.50;13.32;;;;;;;13.55;100.00;99683.69;5064071;28;20037;-62
2023/05/08 00:16:58;;;;;;;20.88;14.70;;;;;;;13.52;100.00;99678.78;5055493;28;20548;-63
2023/05/08 00:19:25;;;;;;;25.48;14.68;;;;;;;13.51;100.00;99682.53;5055910;28;20831;-63
2023/05/08 00:21:52;;;;;;;19.42;14.70;;;;;;;13.52;100.00;99678.78;5059862;28;20095;-63
2023/05/08 00:24:19;;;;;;;20.48;14.57;;;;;;;13.52;100.00;99683.34;5065245;28;20050;-63
2023/05/08 00:26:46;;;;;;;25.60;14.50;;;;;;;13.48;100.00;99672.28;5062055;28;20287;-62
2023/05/08 00:29:13;;;;;;;20.15;13.90;;;;;;;13.37;100.00;99675.91;5057477;28;20037;-63
2023/05/08 00:31:41;;;;;;;24.05;14.50;;;;;;;13.36;100.00;99679.66;5058910;28;20417;-62
2023/05/08 00:34:08;;;;;;;19.85;14.50;;;;;;;13.39;100.00;99687.22;5055843;28;20037;-63
2023/05/08 00:36:36;;;;;;;17.92;14.02;;;;;;;13.40;100.00;99693.44;5063050;28;20082;-62
2023/05/08 00:39:03;;;;;;;21.35;13.93;;;;;;;13.35;100.00;99688.78;5058089;28;20080;-62
2023/05/08 00:41:30;;;;;;;24.25;13.88;;;;;;;13.34;100.00;99692.56;5054778;28;20050;-63
2023/05/08 00:43:57;;;;;;;25.30;15.05;;;;;;;13.31;100.00;99685.78;5060303;28;20127;-62
2023/05/08 00:46:24;;;;;;;18.10;13.13;;;;;;;13.41;100.00;99690.50;5060032;28;20077;-62
2023/05/08 00:48:53;;;;;;;19.85;14.07;;;;;;;13.34;100.00;99697.94;5055466;28;20048;-62
2023/05/08 00:51:20;;;;;;;20.15;11.90;;;;;;;13.25;100.00;99704.78;5058898;28;20033;-62
2023/05/08 00:53:47;;;;;;;16.17;11.95;;;;;;;13.19;100.00;99705.78;5059944;28;20072;-63
2023/05/08 00:56:15;;;;;;;18.63;12.25;;;;;;;13.16;100.00;99702.50;5054957;28;20123;-63
2023/05/08 00:58:42;;;;;;;17.45;12.63;;;;;;;13.11;100.00;99705.13;5056911;28;20338;-63
2023/05/08 01:01:09;;;;;;;20.65;12.65;;;;;;;13.08;100.00;99705.63;5062055;28;20044;-63
2023/05/08 01:03:36;;;;;;;21.02;13.73;;;;;;;13.08;100.00;99713.72;5061915;28;20044;-62
2023/05/08 01:06:05;;;;;;;18.45;13.15;;;;;;;13.07;100.00;99704.00;5065060;28;20048;-63
2023/05/08 01:08:32;;;;;;;19.40;12.93;;;;;;;13.00;100.00;99702.53;5053778;28;20454;-62
2023/05/08 01:11:06;;;;;;;19.88;13.93;;;;;;;12.95;100.00;99705.97;5061772;28;20554;-62
2023/05/08 01:13:41;;;;;;;19.00;13.57;;;;;;;12.90;100.00;99705.88;5052848;28;20036;-62
2023/05/08 01:16:12;;;;;;;18.98;13.35;;;;;;;12.88;100.00;99697.25;5062001;28;20079;-62
2023/05/08 01:18:43;;;;;;;19.63;13.75;;;;;;;12.84;100.00;99696.13;5059847;28;20055;-62
2023/05/08 01:21:14;;;;;;;20.95;14.30;;;;;;;12.81;100.00;99699.31;5061830;28;20044;-62
2023/05/08 01:24:17;;;;;;;22.60;14.45;;;;;;;12.80;100.00;99694.97;5063539;28;20045;-63
2023/05/08 01:26:58;;;;;;;18.05;13.77;;;;;;;12.75;100.00;99695.69;5060550;28;20131;-62
2023/05/08 01:30:02;;;;;;;19.52;14.43;;;;;;;12.77;100.00;99709.72;5055450;28;20060;-62
2023/05/08 01:32:32;;;;;;;18.80;13.27;;;;;;;12.72;100.00;99704.28;5056183;28;20422;-62
2023/05/08 01:35:03;;;;;;;23.65;14.25;;;;;;;12.66;100.00;99707.94;5061297;28;20441;-62
2023/05/08 01:37:35;;;;;;;21.67;14.18;;;;;;;12.66;100.00;99707.94;5059059;28;20138;-62
2023/05/08 01:40:11;;;;;;;22.13;15.23;;;;;;;12.68;100.00;99706.66;5070661;28;20049;-62
2023/05/08 01:42:47;;;;;;;21.27;15.45;;;;;;;12.68;100.00;99712.03;5059015;28;20131;-62
2023/05/08 01:45:22;;;;;;;24.98;15.38;;;;;;;12.71;100.00;99708.84;5060336;28;20063;-63
2023/05/08 01:47:55;;;;;;;21.63;14.95;;;;;;;12.62;100.00;99712.97;5060442;28;20056;-62
2023/05/08 01:50:30;;;;;;;24.45;15.82;;;;;;;12.62;100.00;99715.66;5057429;28;20140;-62
2023/05/08 01:52:58;;;;;;;22.85;15.05;;;;;;;12.58;100.00;99716.41;5061739;28;20068;-62
2023/05/08 01:55:27;;;;;;;22.58;15.20;;;;;;;12.55;100.00;99722.28;5062440;28;20072;-62
2023/05/08 01:57:56;;;;;;;23.25;16.13;;;;;;;12.57;100.00;99723.66;5047843;28;20411;-62
2023/05/08 02:00:24;;;;;;;24.23;15.65;;;;;;;12.54;100.00;99724.16;5064340;28;20092;-62
2023/05/08 02:02:52;;;;;;;23.38;16.35;;;;;;;12.52;100.00;99723.56;5058031;28;20049;-62
2023/05/08 02:05:20;;;;;;;24.27;16.13;;;;;;;12.52;100.00;99729.75;5065090;28;20044;-62
2023/05/08 02:07:47;;;;;;;28.83;16.17;;;;;;;12.54;100.00;99731.41;5065467;28;20316;-63
2023/05/08 02:10:14;;;;;;;24.83;16.52;;;;;;;12.51;100.00;99722.75;5060417;28;20048;-62
2023/05/08 02:12:41;;;;;;;23.80;17.73;;;;;;;12.52;100.00;99729.75;5065671;28;20049;-62
2023/05/08 02:15:09;;;;;;;24.35;16.55;;;;;;;12.50;100.00;99720.31;5063838;28;20085;-62
2023/05/08 02:17:36;;;;;;;26.35;16.55;;;;;;;12.47;100.00;99721.59;5081166;28;20052;-63
2023/05/08 02:20:06;;;;;;;28.52;18.42;;;;;;;12.48;100.00;99719.72;5058399;28;20090;-62
2023/05/08 02:22:34;;;;;;;25.98;17.30;;;;;;;12.40;100.00;99728.19;5057009;28;20036;-64
2023/05/08 02:25:01;;;;;;;24.50;17.80;;;;;;;12.45;100.00;99733.66;5063749;28;20040;-63
2023/05/08 02:27:28;;;;;;;26.45;17.58;;;;;;;12.43;100.00;99735.78;5058410;28;20122;-63
2023/05/08 02:29:56;;;;;;;27.90;18.48;;;;;;;12.40;100.00;99734.38;5050354;28;20104;-64
2023/05/08 02:32:25;;;;;;;26.20;17.95;;;;;;;12.33;100.00;99732.91;5057644;28;20472;-63
2023/05/08 02:34:52;;;;;;;29.33;19.88;;;;;;;12.40;100.00;99736.25;5068464;28;20108;-63
2023/05/08 02:37:21;;;;;;;28.77;18.67;;;;;;;12.40;100.00;99730.88;5063525;28;20044;-63
2023/05/08 02:39:48;;;;;;;29.33;19.95;;;;;;;12.38;100.00;99733.00;5058447;28;20059;-63
2023/05/08 02:42:15;;;;;;;30.85;20.33;;;;;;;12.42;100.00;99739.53;5057829;28;20051;-63
2023/05/08 02:44:42;;;;;;;28.98;19.98;;;;;;;12.47;100.00;99736.94;5085672;28;20048;-62
2023/05/08 02:47:13;;;;;;;27.92;19.02;;;;;;;12.48;100.00;99738.53;5059249;28;20086;-62
2023/05/08 02:49:44;;;;;;;28.15;18.70;;;;;;;12.52;100.00;99737.81;5061495;28;20059;-62
2023/05/08 02:52:13;;;;;;;27.13;18.05;;;;;;;12.58;100.00;99752.19;5065212;28;20488;-63
2023/05/08 02:54:44;;;;;;;32.47;17.33;;;;;;;12.62;100.00;99739.06;5056005;28;20051;-62
2023/05/08 02:57:17;;;;;;;26.48;17.33;;;;;;;12.55;100.00;99744.59;5082654;28;20465;-62
2023/05/08 02:59:46;;;;;;;26.23;18.05;;;;;;;12.44;100.00;99748.16;5058582;28;21658;-62
2023/05/08 03:02:15;;;;;;;24.73;18.42;;;;;;;12.17;100.00;99748.75;5063833;28;20486;-62
2023/05/08 03:04:47;;;;;;;24.35;18.33;;;;;;;12.14;100.00;99743.88;5050734;28;20427;-62
2023/05/08 03:07:14;;;;;;;32.13;19.15;;;;;;;12.02;100.00;99745.78;5055293;28;20131;-62
2023/05/08 03:09:44;;;;;;;26.02;19.17;;;;;;;12.06;100.00;99749.63;5063631;28;20158;-62
2023/05/08 03:12:14;;;;;;;28.92;20.73;;;;;;;12.01;100.00;99753.03;5056170;28;20178;-62
2023/05/08 03:14:44;;;;;;;26.92;18.73;;;;;;;11.94;100.00;99754.22;5061699;28;20037;-62
2023/05/08 03:17:13;;;;;;;26.15;19.35;;;;;;;11.91;100.00;99760.06;5058542;28;20040;-62
2023/05/08 03:19:40;;;;;;;24.63;18.08;;;;;;;11.91;100.00;99757.38;5057029;28;20048;-62
2023/05/08 03:22:07;;;;;;;28.83;18.48;;;;;;;11.88;100.00;99750.59;5056873;28;20141;-62
2023/05/08 03:24:35;;;;;;;25.80;18.40;;;;;;;11.86;100.00;99753.53;5059865;28;20894;-62
2023/05/08 03:27:04;;;;;;;28.08;19.55;;;;;;;11.84;100.00;99750.25;5076985;28;20060;-62
2023/05/08 03:29:31;;;;;;;26.77;18.73;;;;;;;11.84;100.00;99749.44;5060490;28;20040;-62
2023/05/08 03:31:58;;;;;;;25.58;18.42;;;;;;;11.84;100.00;99744.88;5065870;28;20049;-62
2023/05/08 03:34:25;;;;;;;27.17;19.33;;;;;;;11.74;100.00;99749.22;5056782;28;20076;-62
2023/05/08 03:36:52;;;;;;;28.15;20.42;;;;;;;11.69;100.00;99747.25;5055841;28;20048;-62
2023/05/08 03:39:19;;;;;;;32.45;20.58;;;;;;;11.70;100.00;99750.75;5059681;28;20064;-62
2023/05/08 03:41:48;;;;;;;27.70;19.60;;;;;;;11.73;100.00;99742.22;5061641;28;20037;-62
2023/05/08 03:44:16;;;;;;;30.98;19.88;;;;;;;11.65;100.00;99752.25;5059145;28;20044;-62
2023/05/08 03:46:43;;;;;;;23.33;17.23;;;;;;;11.58;100.00;99754.28;5067028;28;20045;-62
2023/05/08 03:49:11;;;;;;;21.67;17.17;;;;;;;11.57;100.00;99759.88;5056060;28;20048;-62
2023/05/08 03:51:39;;;;;;;24.15;17.55;;;;;;;11.54;100.00;99755.78;5065861;28;20053;-62
2023/05/08 03:54:06;;;;;;;26.92;18.77;;;;;;;11.47;100.00;99755.09;5056613;28;20446;-62
2023/05/08 03:56:34;;;;;;;26.75;17.88;;;;;;;11.45;100.00;99758.00;5062384;28;20442;-62
2023/05/08 03:59:12;;;;;;;26.65;19.20;;;;;;;11.43;100.00;99762.81;5057673;28;20132;-62
2023/05/08 04:01:46;;;;;;;27.27;18.80;;;;;;;11.39;100.00;99752.78;5055924;28;20052;-63
2023/05/08 04:04:17;;;;;;;29.40;19.73;;;;;;;11.39;100.00;99758.97;5056800;28;20129;-63
2023/05/08 04:06:49;;;;;;;27.48;19.55;;;;;;;11.50;100.00;99753.81;5074160;28;20091;-62
2023/05/08 04:09:20;;;;;;;27.95;18.95;;;;;;;11.40;100.00;99757.91;5055143;28;20088;-62
2023/05/08 04:11:52;;;;;;;25.92;18.52;;;;;;;11.40;100.00;99755.22;5062177;28;20500;-62
2023/05/08 04:14:20;;;;;;;25.98;18.75;;;;;;;11.46;100.00;99764.22;5059988;28;20046;-62
2023/05/08 04:16:51;;;;;;;29.95;19.75;;;;;;;11.49;100.00;99762.94;5062781;28;20073;-62
2023/05/08 04:19:20;;;;;;;27.58;19.88;;;;;;;11.52;100.00;99763.25;5058813;28;20136;-62
2023/05/08 04:21:48;;;;;;;27.85;18.73;;;;;;;11.42;100.00;99758.47;5059059;28;20057;-62
2023/05/08 04:24:15;;;;;;;26.15;18.20;;;;;;;11.51;100.00;99756.28;5054438;28;20045;-62
2023/05/08 04:26:50;;;;;;;28.73;20.73;;;;;;;11.38;100.00;99760.03;5058586;28;20052;-62
2023/05/08 04:29:17;;;;;;;28.00;18.42;;;;;;;11.36;100.00;99764.81;5062958;28;20045;-61
2023/05/08 04:31:45;;;;;;;27.15;18.40;;;;;;;11.40;100.00;99762.44;5039614;28;20045;-62
2023/05/08 04:34:13;;;;;;;27.75;20.00;;;;;;;11.38;100.00;99772.59;5054426;28;20063;-62
2023/05/08 04:36:41;;;;;;;30.55;19.52;;;;;;;11.45;100.00;99768.75;5053825;28;20064;-61
2023/05/08 04:39:08;;;;;;;27.58;19.63;;;;;;;11.53;100.00;99772.13;5061311;28;20052;-62
2023/05/08 04:41:35;;;;;;;23.20;17.40;;;;;;;11.72;100.00;99773.63;5047700;28;20052;-62
2023/05/08 04:44:03;;;;;;;26.00;19.02;;;;;;;11.74;100.00;99779.56;5052076;28;20068;-62
2023/05/08 04:46:30;;;;;;;26.73;19.33;;;;;;;11.61;100.00;99777.97;5065161;28;20131;-62
2023/05/08 04:48:57;;;;;;;27.17;18.10;;;;;;;11.59;100.00;99782.75;5061756;28;20070;-62
2023/05/08 04:51:26;;;;;;;25.58;17.50;;;;;;;11.57;100.00;99781.34;5061689;28;22038;-62
2023/05/08 04:53:53;;;;;;;25.60;18.08;;;;;;;11.63;100.00;99780.41;5058540;28;20036;-62
2023/05/08 04:56:20;;;;;;;25.65;19.13;;;;;;;11.76;100.00;99780.16;5063901;28;20047;-62
2023/05/08 04:58:48;;;;;;;24.75;18.85;;;;;;;11.64;100.00;99792.78;5061894;28;20084;-62
2023/05/08 05:01:15;;;;;;;25.60;18.10;;;;;;;11.65;100.00;99797.09;5057558;28;20057;-62
2023/05/08 05:03:43;;;;;;;23.48;18.10;;;;;;;11.57;100.00;99798.28;5054240;28;20130;-62
2023/05/08 05:06:10;;;;;;;29.75;19.92;;;;;;;11.44;100.00;99793.97;5057837;28;20049;-62
2023/05/08 05:08:38;;;;;;;25.23;19.38;;;;;;;11.31;100.00;99794.22;5056467;28;20135;-61
2023/05/08 05:11:05;;;;;;;31.92;20.85;;;;;;;11.19;100.00;99796.88;5056472;28;20409;-62
2023/05/08 05:13:32;;;;;;;29.80;20.38;;;;;;;11.16;100.00;99801.91;5063104;28;20440;-61
2023/05/08 05:16:00;;;;;;;29.10;20.45;;;;;;;11.11;100.00;99804.47;5045544;28;20057;-62
2023/05/08 05:18:27;;;;;;;31.40;20.85;;;;;;;11.10;100.00;99818.91;5061655;28;20044;-63
2023/05/08 05:20:57;;;;;;;32.42;20.27;;;;;;;11.18;100.00;99815.88;5062416;28;20094;-63
2023/05/08 05:23:25;;;;;;;29.85;20.05;;;;;;;11.15;100.00;99810.97;5064449;28;20129;-62
2023/05/08 05:25:53;;;;;;;30.98;21.10;;;;;;;11.07;100.00;99814.00;5069286;28;20048;-62
2023/05/08 05:28:20;;;;;;;39.38;22.73;;;;;;;11.07;100.00;99814.00;5056655;28;20032;-63
2023/05/08 05:30:47;;;;;;;32.15;22.02;;;;;;;11.09;100.00;99812.72;5056198;28;20047;-63
2023/05/08 05:33:15;;;;;;;32.42;22.00;;;;;;;11.05;100.00;99805.38;5046232;28;20056;-63
2023/05/08 05:35:42;;;;;;;33.08;22.17;;;;;;;11.09;100.00;99810.06;5093462;28;20071;-63
2023/05/08 05:38:09;;;;;;;31.88;22.67;;;;;;;11.12;100.00;99800.72;5056554;28;20469;-63
2023/05/08 05:40:36;;;;;;;32.25;21.60;;;;;;;11.14;100.00;99812.03;5052360;28;20049;-63
2023/05/08 05:43:05;;;;;;;30.30;22.95;;;;;;;11.23;100.00;99805.25;5058328;28;20062;-63
2023/05/08 05:45:32;;;;;;;34.13;22.48;;;;;;;11.26;100.00;99807.50;5063464;28;20032;-62
2023/05/08 05:47:59;;;;;;;31.55;21.67;;;;;;;11.27;100.00;99801.06;5063729;28;20052;-63
2023/05/08 05:50:27;;;;;;;31.25;21.77;;;;;;;11.30;100.00;99816.72;5064344;28;20048;-62
2023/05/08 05:52:55;;;;;;;33.08;21.83;;;;;;;11.28;100.00;99815.31;5074537;28;20044;-62
2023/05/08 05:55:22;;;;;;;29.42;21.27;;;;;;;11.26;100.00;99815.56;5064809;28;20052;-62
2023/05/08 05:57:50;;;;;;;31.30;21.90;;;;;;;11.35;100.00;99816.81;5055021;28;20115;-63
2023/05/08 06:00:20;;;;;;;31.35;21.83;;;;;;;11.34;100.00;99815.19;5062789;28;20047;-63
2023/05/08 06:02:50;;;;;;;32.95;20.10;;;;;;;11.41;100.00;99812.41;5061825;28;20545;-63
2023/05/08 06:05:18;;;;;;;27.45;20.02;;;;;;;11.52;100.00;99805.41;5065574;28;20044;-62
2023/05/08 06:07:46;;;;;;;28.77;19.50;;;;;;;11.63;100.00;99812.63;5059860;28;20144;-62
2023/05/08 06:10:13;;;;;;;28.67;18.65;;;;;;;11.64;100.00;99819.63;5053633;28;20428;-61
2023/05/08 06:12:40;;;;;;;27.35;20.02;;;;;;;11.66;100.00;99823.72;5060907;28;20475;-63
2023/05/08 06:15:08;;;;;;;29.45;18.90;;;;;;;11.85;100.00;99821.69;5054186;28;20033;-62
2023/05/08 06:17:37;;;;;;;27.02;19.55;;;;;;;12.12;100.00;99818.53;5055761;28;20049;-62
2023/05/08 06:20:05;;;;;;;27.08;18.92;;;;;;;12.21;100.00;99818.97;5056229;28;20080;-62
2023/05/08 06:22:32;;;;;;;24.58;18.67;;;;;;;12.36;100.00;99823.84;5062292;28;20044;-63
2023/05/08 06:24:59;;;;;;;25.40;18.10;;;;;;;12.27;100.00;99829.56;5055636;28;20186;-63
2023/05/08 06:27:26;;;;;;;25.77;17.92;;;;;;;11.92;100.00;99826.97;5059710;28;20513;-62
2023/05/08 06:29:53;;;;;;;25.33;18.17;;;;;;;12.15;100.00;99826.09;5062547;28;20102;-63
2023/05/08 06:32:20;;;;;;;24.50;18.80;;;;;;;12.25;100.00;99828.97;5062126;28;20068;-62
2023/05/08 06:34:49;;;;;;;26.98;18.45;;;;;;;12.42;100.00;99836.31;5063553;28;20102;-62
2023/05/08 06:37:19;;;;;;;24.25;18.13;;;;;;;12.45;100.00;99835.81;5062970;28;20057;-62
2023/05/08 06:39:46;;;;;;;24.10;17.50;;;;;;;12.38;100.00;99835.13;5057686;28;20037;-63
2023/05/08 06:42:13;;;;;;;28.17;18.48;;;;;;;12.50;100.00;99838.59;5062647;28;20071;-62
2023/05/08 06:44:41;;;;;;;25.80;17.27;;;;;;;12.88;100.00;99837.97;5055368;28;20069;-63
2023/05/08 06:47:08;;;;;;;20.70;16.90;;;;;;;13.08;100.00;99837.50;5066178;28;20120;-63
2023/05/08 06:49:35;;;;;;;22.90;15.63;;;;;;;13.30;100.00;99839.47;5057452;28;20141;-63
2023/05/08 06:52:04;;;;;;;26.40;15.90;;;;;;;13.26;100.00;99841.81;5059223;28;20545;-63
2023/05/08 06:54:31;;;;;;;20.42;16.23;;;;;;;12.95;100.00;99840.47;5057719;28;20147;-63
2023/05/08 06:56:58;;;;;;;23.70;16.80;;;;;;;12.47;100.00;99839.91;5057996;28;20147;-63
2023/05/08 06:59:25;;;;;;;25.05;17.35;;;;;;;12.45;100.00;99842.00;5061442;28;20037;-62
2023/05/08 07:01:52;;;;;;;21.80;16.27;;;;;;;12.33;100.00;99837.72;5060166;28;20071;-62
2023/05/08 07:04:19;;;;;;;22.77;16.88;;;;;;;12.36;100.00;99842.66;5059845;28;20162;-62
2023/05/08 07:06:46;;;;;;;21.35;17.02;;;;;;;12.34;100.00;99847.44;5063799;28;20375;-62
2023/05/08 07:09:15;;;;;;;28.38;16.65;;;;;;;12.35;100.00;99851.75;5058360;28;20049;-62
2023/05/08 07:11:42;;;;;;;23.42;16.40;;;;;;;12.30;100.00;99849.78;5058454;28;20098;-62
2023/05/08 07:14:09;;;;;;;22.05;17.70;;;;;;;12.21;100.00;99843.16;5056139;28;20136;-62
2023/05/08 07:16:36;;;;;;;28.45;18.70;;;;;;;12.44;100.00;99850.31;5060477;28;20139;-62
2023/05/08 07:19:03;;;;;;;23.48;17.13;;;;;;;12.41;100.00;99848.94;5061879;28;20183;-63
2023/05/08 07:21:31;;;;;;;23.08;17.73;;;;;;;12.39;100.00;99855.59;5063235;28;20063;-63
2023/05/08 07:23:58;;;;;;;23.02;17.45;;;;;;;12.55;100.00;99846.75;5054717;28;20128;-63
2023/05/08 07:26:26;;;;;;;22.65;16.58;;;;;;;12.66;100.00;99847.78;5057023;28;20073;-63
2023/05/08 07:28:53;;;;;;;22.92;17.00;;;;;;;12.63;100.00;99843.72;5064518;28;20470;-61
2023/05/08 07:31:21;;;;;;;24.15;16.77;;;;;;;12.81;100.00;99850.75;5062691;28;20037;-63
2023/05/08 07:33:48;;;;;;;20.33;16.10;;;;;;;12.64;100.00;99845.31;5064887;28;20044;-61
2023/05/08 07:36:15;;;;;;;18.92;15.40;;;;;;;12.61;100.00;99842.31;5057328;28;20061;-63
2023/05/08 07:38:42;;;;;;;22.25;17.58;;;;;;;12.71;100.00;99854.06;5066263;28;20127;-63
2023/05/08 07:41:09;;;;;;;25.30;16.55;;;;;;;12.69;100.00;99852.69;5058001;28;20040;-62
2023/05/08 07:43:38;;;;;;;21.70;16.17;;;;;;;12.62;100.00;99852.81;5065587;28;20058;-63
2023/05/08 07:46:05;;;;;;;22.15;17.20;;;;;;;12.63;100.00;99848.25;5060247;28;20053;-63
2023/05/08 07:48:32;;;;;;;27.55;17.45;;;;;;;12.75;100.00;99843.63;5061006;28;20047;-62
2023/05/08 07:50:59;;;;;;;23.75;17.40;;;;;;;12.70;100.00;99849.75;5057846;28;20099;-63
2023/05/08 07:53:26;;;;;;;22.77;17.92;;;;;;;12.73;100.00;99843.09;5063039;28;20049;-63
2023/05/08 07:55:53;;;;;;;22.83;16.42;;;;;;;12.70;100.00;99848.91;5054421;28;20041;-63
2023/05/08 07:58:20;;;;;;;24.70;17.50;;;;;;;12.64;100.00;99850.72;5061096;28;20044;-63
2023/05/08 08:00:49;;;;;;;22.58;17.70;;;;;;;12.80;100.00;99854.47;5062943;28;20473;-63
2023/05/08 08:03:16;;;;;;;22.33;17.23;;;;;;;12.93;100.00;99848.81;5061511;28;20071;-63
2023/05/08 08:05:43;;;;;;;24.75;16.98;;;;;;;12.72;100.00;99844.94;5062921;28;20482;-63
2023/05/08 08:08:10;;;;;;;21.88;16.67;;;;;;;12.82;100.00;99847.00;5057655;28;20419;-62
2023/05/08 08:10:38;;;;;;;25.45;16.90;;;;;;;12.86;100.00;99845.47;5055620;28;20040;-63
2023/05/08 08:13:05;;;;;;;22.80;16.23;;;;;;;12.78;100.00;99853.09;5064945;28;20044;-63
2023/05/08 08:15:32;;;;;;;22.20;16.90;;;;;;;12.35;100.00;99854.44;5061580;28;20044;-63
2023/05/08 08:18:01;;;;;;;22.90;16.15;;;;;;;12.35;100.00;99855.25;5055902;28;20052;-61
2023/05/08 08:20:28;;;;;;;20.30;15.73;;;;;;;12.30;100.00;99852.47;5063224;28;20552;-62
2023/05/08 08:22:55;;;;;;;22.13;15.68;;;;;;;12.23;100.00;99849.94;5063836;28;20041;-62
2023/05/08 08:25:23;;;;;;;20.80;16.48;;;;;;;12.14;100.00;99856.72;5055932;28;20106;-62
2023/05/08 08:27:50;;;;;;;24.63;16.83;;;;;;;12.25;100.00;99860.44;5062960;28;20041;-62
2023/05/08 08:30:17;;;;;;;23.95;16.50;;;;;;;12.43;100.00;99859.44;5062926;28;20330;-62
2023/05/08 08:32:44;;;;;;;21.70;16.73;;;;;;;12.38;100.00;99862.88;5054943;28;20059;-62
2023/05/08 08:35:13;;;;;;;22.45;15.75;;;;;;;12.42;100.00;99863.19;5058495;28;20527;-62
2023/05/08 08:37:40;;;;;;;22.20;15.15;;;;;;;12.47;100.00;99868.66;5060173;28;20127;-62
2023/05/08 08:40:08;;;;;;;23.05;15.43;;;;;;;12.47;100.00;99866.78;5070496;28;20044;-61
2023/05/08 08:42:35;;;;;;;25.58;15.82;;;;;;;12.47;100.00;99865.97;5053351;28;20445;-62
2023/05/08 08:45:02;;;;;;;21.63;15.88;;;;;;;12.63;100.00;99870.59;5063313;28;20048;-62
2023/05/08 08:47:29;;;;;;;20.58;15.65;;;;;;;12.41;100.00;99867.75;5057627;28;20131;-63
2023/05/08 08:49:58;;;;;;;21.15;16.13;;;;;;;12.42;100.00;99871.25;5057476;28;20076;-61
2023/05/08 08:52:39;;;;;;;27.08;17.48;;;;;;;12.43;100.00;99870.19;5044352;28;20052;-61
2023/05/08 08:55:07;;;;;;;20.00;16.98;;;;;;;12.44;100.00;99863.78;5056737;28;20166;-61
2023/05/08 08:57:34;;;;;;;24.83;18.13;;;;;;;12.68;100.00;99865.31;5057129;28;20051;-61
2023/05/08 09:00:03;;;;;;;23.13;16.58;;;;;;;12.52;100.00;99863.38;5058994;28;20115;-61
2023/05/08 09:02:31;;;;;;;23.50;16.23;;;;;;;12.42;100.00;99857.81;5054545;28;20056;-61
2023/05/08 09:04:58;;;;;;;22.98;17.23;;;;;;;12.54;100.00;99863.16;5059280;28;20119;-61
2023/05/08 09:07:25;;;;;;;26.77;17.55;;;;;;;12.72;100.00;99863.75;5060416;28;20037;-61
2023/05/08 09:09:54;;;;;;;22.90;16.85;;;;;;;12.69;100.00;99864.25;5053782;28;20048;-61
2023/05/08 09:12:23;;;;;;;22.15;16.77;;;;;;;12.79;100.00;99865.50;5055571;28;20147;-61
2023/05/08 09:14:50;;;;;;;20.33;16.57;;;;;;;12.72;100.00;99863.75;5059284;28;20495;-61
2023/05/08 09:17:17;;;;;;;21.33;16.02;;;;;;;12.61;100.00;99867.34;5062052;28;20040;-62
2023/05/08 09:19:44;;;;;;;21.77;16.95;;;;;;;12.89;100.00;99860.31;5064527;28;20068;-61
2023/05/08 09:22:11;;;;;;;23.10;15.93;;;;;;;12.84;100.00;99865.59;5056184;28;20044;-61
2023/05/08 09:24:56;;;;;;;20.90;15.50;;;;;;;13.26;100.00;99865.25;5059045;28;20483;-62
2023/05/08 09:27:23;;;;;;;23.98;16.65;;;;;;;13.52;100.00;99872.66;5063110;28;20132;-61
2023/05/08 09:30:01;;;;;;;21.73;16.90;;;;;;;14.27;100.00;99872.34;5054122;28;20064;-62
2023/05/08 09:32:29;;;;;;;22.88;15.63;;;;;;;14.70;100.00;99871.50;5054337;28;20044;-62
2023/05/08 09:34:57;;;;;;;23.73;16.35;;;;;;;14.98;100.00;99867.75;5059152;28;20045;-61
2023/05/08 09:37:24;;;;;;;19.33;15.20;;;;;;;14.97;100.00;99882.31;5058286;28;20037;-61
2023/05/08 09:39:51;;;;;;;20.23;15.20;;;;;;;14.83;100.00;99879.22;5058107;28;20108;-62
2023/05/08 09:42:19;;;;;;;21.58;14.68;;;;;;;15.10;100.00;99871.13;5061969;28;20037;-62
2023/05/08 09:44:48;;;;;;;18.85;14.40;;;;;;;15.21;99.67;99869.31;5057386;28;20132;-61
2023/05/08 09:47:15;;;;;;;18.67;14.65;;;;;;;15.26;100.00;99874.75;5057237;28;20297;-62
2023/05/08 09:49:56;;;;;;;18.90;13.77;;;;;;;15.60;97.67;99874.47;5060137;28;20040;-61
2023/05/08 09:52:23;;;;;;;16.52;14.00;;;;;;;15.89;94.65;99880.34;5052940;28;20537;-62
2023/05/08 09:54:57;;;;;;;15.25;12.95;;;;;;;16.09;93.37;99874.25;5058021;28;20058;-61
2023/05/08 09:57:26;;;;;;;15.30;13.00;;;;;;;15.98;91.46;99875.28;5062921;28;20504;-61
2023/05/08 10:00:00;;;;;;;17.52;13.45;;;;;;;15.54;93.21;99880.91;5055116;28;20091;-62
2023/05/08 10:02:27;;;;;;;20.05;13.27;;;;;;;15.64;99.17;99880.97;5062864;28;20079;-62
2023/05/08 10:04:56;;;;;;;18.73;13.35;;;;;;;15.81;97.94;99885.44;5058793;28;20045;-62
2023/05/08 10:07:28;;;;;;;16.20;13.63;;;;;;;15.73;96.39;99886.75;5056701;28;20544;-62
2023/05/08 10:09:59;;;;;;;20.38;14.05;;;;;;;15.49;100.00;99880.88;5063569;28;20106;-62
2023/05/08 10:12:28;;;;;;;15.88;13.57;;;;;;;15.43;98.62;99885.44;5054487;28;20052;-61
2023/05/08 10:14:55;;;;;;;18.08;13.13;;;;;;;15.27;100.00;99880.97;5059018;28;20049;-62
2023/05/08 10:17:26;;;;;;;17.55;13.05;;;;;;;15.01;99.97;99883.44;5054866;28;20509;-62
2023/05/08 10:19:55;;;;;;;17.70;13.63;;;;;;;14.95;96.11;99879.09;5061251;28;20060;-62
2023/05/08 10:22:22;;;;;;;15.77;13.25;;;;;;;15.20;98.69;99873.09;5060977;28;20506;-62
2023/05/08 10:24:50;;;;;;;16.15;13.05;;;;;;;15.74;97.92;99883.78;5066329;28;20151;-62
2023/05/08 10:27:17;;;;;;;16.83;13.70;;;;;;;15.59;98.09;99883.66;5065867;28;20041;-62
2023/05/08 10:29:49;;;;;;;25.75;14.43;;;;;;;15.49;94.87;99883.56;5060271;28;20143;-61
2023/05/08 10:32:16;;;;;;;18.17;13.18;;;;;;;15.58;95.11;99879.31;5061266;28;20061;-62
2023/05/08 10:34:44;;;;;;;16.02;13.00;;;;;;;15.09;97.48;99879.47;5061752;28;20052;-62
2023/05/08 10:37:11;;;;;;;19.65;14.55;;;;;;;15.31;100.00;99877.50;5061713;28;20142;-61
2023/05/08 10:39:38;;;;;;;19.27;13.95;;;;;;;16.03;95.54;99872.59;5064047;28;20476;-61
2023/05/08 10:42:05;;;;;;;18.30;13.30;;;;;;;15.68;99.71;99874.00;5062127;28;20148;-62
2023/05/08 10:44:32;;;;;;;20.05;13.93;;;;;;;15.55;98.38;99874.44;5060913;28;20044;-62
2023/05/08 10:47:04;;;;;;;19.80;13.70;;;;;;;15.70;97.03;99871.88;5066027;28;20044;-62
2023/05/08 10:49:35;;;;;;;17.88;13.80;;;;;;;15.53;99.33;99871.19;5060230;28;20044;-62
2023/05/08 10:52:09;;;;;;;19.92;13.25;;;;;;;15.79;97.14;99874.88;5060633;28;20620;-62
2023/05/08 10:54:42;;;;;;;14.32;12.18;;;;;;;15.96;98.49;99872.81;5055877;28;20061;-61
2023/05/08 10:57:10;;;;;;;15.48;13.25;;;;;;;15.59;95.85;99872.84;5064621;28;20049;-61
2023/05/08 10:59:37;;;;;;;17.45;12.82;;;;;;;15.78;98.95;99869.75;5059871;28;20098;-61
2023/05/08 11:02:06;;;;;;;16.33;13.05;;;;;;;15.76;97.79;99869.19;5061013;28;20052;-62
2023/05/08 11:04:33;;;;;;;19.83;12.75;;;;;;;16.02;97.42;99864.75;5067703;28;20044;-62
2023/05/08 11:07:00;;;;;;;15.98;12.07;;;;;;;15.99;95.93;99863.38;5064602;28;20409;-62
2023/05/08 11:09:28;;;;;;;16.75;13.45;;;;;;;16.41;92.21;99865.19;5059587;28;20133;-61
2023/05/08 11:12:16;;;;;;;17.67;13.20;;;;;;;15.88;91.57;99857.13;5056309;28;20048;-62
2023/05/08 11:14:43;;;;;;;15.98;13.55;;;;;;;15.83;94.80;99854.38;5066376;28;20753;-61
2023/05/08 11:17:11;;;;;;;17.38;13.63;;;;;;;16.09;91.68;99858.00;5064599;28;20064;-62